sensor_id;sensor_type;location;lat;lon;timestamp;temperature;humidity
48454;DHT22;34261;55.678;12.464;2022-11-18T00:01:36;7.20;99.90
48454;DHT22;34261;55.678;12.464;2022-11-18T00:04:03;7.20;99.90
48454;DHT22;34261;55.678;12.464;2022-11-18T00:06:29;7.10;99.90
48454;DHT22;34261;55.678;12.464;2022-11-18T00:08:57;7.00;99.90
48454;DHT22;34261;55.678;12.464;2022-11-18T00:11:25;7.10;99.90
48454;DHT22;34261;55.678;12.464;2022-11-18T00:14:11;7.00;99.90
48454;DHT22;34261;55.678;12.464;2022-11-18T00:16:44;7.10;99.90
48454;DHT22;34261;55.678;12.464;2022-11-18T00:19:10;7.00;99.90
48454;DHT22;34261;55.678;12.464;2022-11-18T00:21:35;7.00;99.90
48454;DHT22;34261;55.678;12.464;2022-11-18T00:24:14;6.90;99.90
48454;DHT22;34261;55.678;12.464;2022-11-18T00:26:40;7.00;99.90
48454;DHT22;34261;55.678;12.464;2022-11-18T00:29:07;7.00;99.90
48454;DHT22;34261;55.678;12.464;2022-11-18T00:31:36;7.00;99.90
48454;DHT22;34261;55.678;12.464;2022-11-18T00:34:01;7.00;99.90
48454;DHT22;34261;55.678;12.464;2022-11-18T00:36:28;7.00;99.90
48454;DHT22;34261;55.678;12.464;2022-11-18T00:38:54;7.00;99.90
48454;DHT22;34261;55.678;12.464;2022-11-18T00:41:19;6.90;99.90
48454;DHT22;34261;55.678;12.464;2022-11-18T00:43:45;6.90;99.90
48454;DHT22;34261;55.678;12.464;2022-11-18T00:46:11;6.90;99.90
48454;DHT22;34261;55.678;12.464;2022-11-18T00:48:38;6.90;99.90
48454;DHT22;34261;55.678;12.464;2022-11-18T00:51:12;6.90;99.90
48454;DHT22;34261;55.678;12.464;2022-11-18T00:53:38;6.90;99.90
48454;DHT22;34261;55.678;12.464;2022-11-18T00:56:03;7.00;99.90
48454;DHT22;34261;55.678;12.464;2022-11-18T00:58:30;7.00;99.90
48454;DHT22;34261;55.678;12.464;2022-11-18T01:00:57;7.00;99.90
48454;DHT22;34261;55.678;12.464;2022-11-18T01:03:23;7.00;99.90
48454;DHT22;34261;55.678;12.464;2022-11-18T01:05:50;7.00;99.90
48454;DHT22;34261;55.678;12.464;2022-11-18T01:08:16;7.00;99.90
48454;DHT22;34261;55.678;12.464;2022-11-18T01:10:43;7.00;99.90
48454;DHT22;34261;55.678;12.464;2022-11-18T01:13:13;6.90;99.90
48454;DHT22;34261;55.678;12.464;2022-11-18T01:15:46;6.90;99.90
48454;DHT22;34261;55.678;12.464;2022-11-18T01:18:13;6.90;99.90
48454;DHT22;34261;55.678;12.464;2022-11-18T01:20:38;6.90;99.90
48454;DHT22;34261;55.678;12.464;2022-11-18T01:23:04;6.80;99.90
48454;DHT22;34261;55.678;12.464;2022-11-18T01:25:33;6.80;99.90
48454;DHT22;34261;55.678;12.464;2022-11-18T01:27:59;6.70;99.90
48454;DHT22;34261;55.678;12.464;2022-11-18T01:30:25;6.70;99.90
48454;DHT22;34261;55.678;12.464;2022-11-18T01:32:50;6.70;99.90
48454;DHT22;34261;55.678;12.464;2022-11-18T01:35:17;6.80;99.90
48454;DHT22;34261;55.678;12.464;2022-11-18T01:37:43;6.80;99.90
48454;DHT22;34261;55.678;12.464;2022-11-18T01:40:10;6.80;99.90
48454;DHT22;34261;55.678;12.464;2022-11-18T01:42:38;6.80;99.90
48454;DHT22;34261;55.678;12.464;2022-11-18T01:45:09;6.80;99.90
48454;DHT22;34261;55.678;12.464;2022-11-18T01:47:41;6.80;99.90
48454;DHT22;34261;55.678;12.464;2022-11-18T01:50:08;6.80;99.90
48454;DHT22;34261;55.678;12.464;2022-11-18T01:52:34;6.90;99.90
48454;DHT22;34261;55.678;12.464;2022-11-18T01:55:03;6.90;99.90
48454;DHT22;34261;55.678;12.464;2022-11-18T01:57:30;6.90;99.90
48454;DHT22;34261;55.678;12.464;2022-11-18T01:59:57;7.00;99.90
48454;DHT22;34261;55.678;12.464;2022-11-18T02:02:24;7.00;99.90
48454;DHT22;34261;55.678;12.464;2022-11-18T02:04:50;6.90;99.90
48454;DHT22;34261;55.678;12.464;2022-11-18T02:07:18;7.00;99.90
48454;DHT22;34261;55.678;12.464;2022-11-18T02:09:44;7.00;99.90
48454;DHT22;34261;55.678;12.464;2022-11-18T02:12:10;7.00;99.90
48454;DHT22;34261;55.678;12.464;2022-11-18T02:14:40;6.90;99.90
48454;DHT22;34261;55.678;12.464;2022-11-18T02:20:08;6.80;99.90
48454;DHT22;34261;55.678;12.464;2022-11-18T02:25:17;6.70;99.90
48454;DHT22;34261;55.678;12.464;2022-11-18T02:30:10;6.50;99.90
48454;DHT22;34261;55.678;12.464;2022-11-18T02:37:42;6.50;99.90
48454;DHT22;34261;55.678;12.464;2022-11-18T02:40:17;6.60;99.90
48454;DHT22;34261;55.678;12.464;2022-11-18T02:42:44;6.60;99.90
48454;DHT22;34261;55.678;12.464;2022-11-18T02:45:14;6.60;99.90
48454;DHT22;34261;55.678;12.464;2022-11-18T02:47:41;6.60;99.90
48454;DHT22;34261;55.678;12.464;2022-11-18T02:50:08;6.60;99.90
48454;DHT22;34261;55.678;12.464;2022-11-18T02:52:36;6.60;99.90
48454;DHT22;34261;55.678;12.464;2022-11-18T02:55:09;6.60;99.90
48454;DHT22;34261;55.678;12.464;2022-11-18T02:57:36;6.60;99.90
48454;DHT22;34261;55.678;12.464;2022-11-18T03:00:03;6.70;99.90
48454;DHT22;34261;55.678;12.464;2022-11-18T03:02:42;6.60;99.90
48454;DHT22;34261;55.678;12.464;2022-11-18T03:07:55;6.60;99.90
48454;DHT22;34261;55.678;12.464;2022-11-18T03:10:32;6.60;99.90
48454;DHT22;34261;55.678;12.464;2022-11-18T03:15:31;6.60;99.90
48454;DHT22;34261;55.678;12.464;2022-11-18T03:20:37;6.60;99.90
48454;DHT22;34261;55.678;12.464;2022-11-18T03:23:17;6.60;99.90
48454;DHT22;34261;55.678;12.464;2022-11-18T03:28:18;6.60;99.90
48454;DHT22;34261;55.678;12.464;2022-11-18T03:33:21;6.50;99.90
48454;DHT22;34261;55.678;12.464;2022-11-18T03:35:49;6.50;99.90
48454;DHT22;34261;55.678;12.464;2022-11-18T03:38:18;6.50;99.90
48454;DHT22;34261;55.678;12.464;2022-11-18T03:40:47;6.50;99.90
48454;DHT22;34261;55.678;12.464;2022-11-18T03:43:16;6.50;99.90
48454;DHT22;34261;55.678;12.464;2022-11-18T03:45:46;6.50;99.90
48454;DHT22;34261;55.678;12.464;2022-11-18T03:48:17;6.50;99.90
48454;DHT22;34261;55.678;12.464;2022-11-18T03:50:50;6.50;99.90
48454;DHT22;34261;55.678;12.464;2022-11-18T03:53:16;6.50;99.90
48454;DHT22;34261;55.678;12.464;2022-11-18T03:55:44;6.60;99.90
48454;DHT22;34261;55.678;12.464;2022-11-18T03:58:24;6.60;99.90
48454;DHT22;34261;55.678;12.464;2022-11-18T04:00:53;6.60;99.90
48454;DHT22;34261;55.678;12.464;2022-11-18T04:03:21;6.50;99.90
48454;DHT22;34261;55.678;12.464;2022-11-18T04:05:46;6.60;99.90
48454;DHT22;34261;55.678;12.464;2022-11-18T04:08:17;6.50;99.90
48454;DHT22;34261;55.678;12.464;2022-11-18T04:10:49;6.50;99.90
48454;DHT22;34261;55.678;12.464;2022-11-18T04:13:24;6.40;99.90
48454;DHT22;34261;55.678;12.464;2022-11-18T04:15:50;6.40;99.90
48454;DHT22;34261;55.678;12.464;2022-11-18T04:18:18;6.50;99.90
48454;DHT22;34261;55.678;12.464;2022-11-18T04:20:43;6.50;99.90
48454;DHT22;34261;55.678;12.464;2022-11-18T04:23:09;6.40;99.90
48454;DHT22;34261;55.678;12.464;2022-11-18T04:25:35;6.40;99.90
48454;DHT22;34261;55.678;12.464;2022-11-18T04:28:00;6.50;99.90
48454;DHT22;34261;55.678;12.464;2022-11-18T04:30:26;6.50;99.90
48454;DHT22;34261;55.678;12.464;2022-11-18T04:32:52;6.60;99.90
48454;DHT22;34261;55.678;12.464;2022-11-18T04:35:18;6.60;99.90
48454;DHT22;34261;55.678;12.464;2022-11-18T04:37:43;6.60;99.90
48454;DHT22;34261;55.678;12.464;2022-11-18T05:08:40;6.80;99.90
48454;DHT22;34261;55.678;12.464;2022-11-18T05:11:40;6.80;99.90
48454;DHT22;34261;55.678;12.464;2022-11-18T05:14:34;6.80;99.90
48454;DHT22;34261;55.678;12.464;2022-11-18T05:17:04;6.70;99.90
48454;DHT22;34261;55.678;12.464;2022-11-18T05:19:50;6.70;99.90
48454;DHT22;34261;55.678;12.464;2022-11-18T05:22:26;6.70;99.90
48454;DHT22;34261;55.678;12.464;2022-11-18T05:25:23;6.70;99.90
48454;DHT22;34261;55.678;12.464;2022-11-18T05:27:59;6.70;99.90
48454;DHT22;34261;55.678;12.464;2022-11-18T05:30:35;6.70;99.90
48454;DHT22;34261;55.678;12.464;2022-11-18T05:33:07;6.60;99.90
48454;DHT22;34261;55.678;12.464;2022-11-18T05:35:40;6.60;99.90
48454;DHT22;34261;55.678;12.464;2022-11-18T05:38:27;6.60;99.90
48454;DHT22;34261;55.678;12.464;2022-11-18T05:41:24;6.70;99.90
48454;DHT22;34261;55.678;12.464;2022-11-18T05:44:28;6.70;99.90
48454;DHT22;34261;55.678;12.464;2022-11-18T05:47:09;6.60;99.90
48454;DHT22;34261;55.678;12.464;2022-11-18T05:49:59;6.60;99.90
48454;DHT22;34261;55.678;12.464;2022-11-18T05:52:26;6.60;99.90
48454;DHT22;34261;55.678;12.464;2022-11-18T05:55:06;6.60;99.90
48454;DHT22;34261;55.678;12.464;2022-11-18T05:57:54;6.60;99.90
48454;DHT22;34261;55.678;12.464;2022-11-18T06:00:20;6.60;99.90
48454;DHT22;34261;55.678;12.464;2022-11-18T06:03:16;6.50;99.90
48454;DHT22;34261;55.678;12.464;2022-11-18T06:05:42;6.50;99.90
48454;DHT22;34261;55.678;12.464;2022-11-18T06:08:19;6.40;99.90
48454;DHT22;34261;55.678;12.464;2022-11-18T06:10:49;6.40;99.90
48454;DHT22;34261;55.678;12.464;2022-11-18T06:13:18;6.30;99.90
48454;DHT22;34261;55.678;12.464;2022-11-18T06:15:45;6.30;99.90
48454;DHT22;34261;55.678;12.464;2022-11-18T06:18:12;6.30;99.90
48454;DHT22;34261;55.678;12.464;2022-11-18T06:20:41;6.20;99.90
48454;DHT22;34261;55.678;12.464;2022-11-18T06:23:06;6.20;99.90
48454;DHT22;34261;55.678;12.464;2022-11-18T06:25:32;6.20;99.90
48454;DHT22;34261;55.678;12.464;2022-11-18T06:27:59;6.10;99.90
48454;DHT22;34261;55.678;12.464;2022-11-18T06:30:25;6.20;99.90
48454;DHT22;34261;55.678;12.464;2022-11-18T06:32:51;6.30;99.90
48454;DHT22;34261;55.678;12.464;2022-11-18T06:35:17;6.30;99.90
48454;DHT22;34261;55.678;12.464;2022-11-18T06:37:43;6.30;99.90
48454;DHT22;34261;55.678;12.464;2022-11-18T06:40:09;6.30;99.90
48454;DHT22;34261;55.678;12.464;2022-11-18T06:42:35;6.40;99.90
48454;DHT22;34261;55.678;12.464;2022-11-18T06:45:19;6.40;99.90
48454;DHT22;34261;55.678;12.464;2022-11-18T06:47:44;6.40;99.90
48454;DHT22;34261;55.678;12.464;2022-11-18T06:50:10;6.40;99.90
48454;DHT22;34261;55.678;12.464;2022-11-18T07:10:52;6.30;99.90
48454;DHT22;34261;55.678;12.464;2022-11-18T07:13:18;6.30;99.90
48454;DHT22;34261;55.678;12.464;2022-11-18T07:15:44;6.40;99.90
48454;DHT22;34261;55.678;12.464;2022-11-18T07:18:09;6.30;99.90
48454;DHT22;34261;55.678;12.464;2022-11-18T07:20:35;6.40;99.90
48454;DHT22;34261;55.678;12.464;2022-11-18T07:23:01;6.30;99.90
48454;DHT22;34261;55.678;12.464;2022-11-18T07:25:26;6.30;99.90
48454;DHT22;34261;55.678;12.464;2022-11-18T07:30:27;6.30;99.90
48454;DHT22;34261;55.678;12.464;2022-11-18T07:32:54;6.20;99.90
48454;DHT22;34261;55.678;12.464;2022-11-18T07:35:30;6.20;99.90
48454;DHT22;34261;55.678;12.464;2022-11-18T07:38:23;6.20;99.90
48454;DHT22;34261;55.678;12.464;2022-11-18T07:41:28;6.20;99.90
48454;DHT22;34261;55.678;12.464;2022-11-18T07:44:04;6.20;99.90
48454;DHT22;34261;55.678;12.464;2022-11-18T07:46:48;6.20;99.90
48454;DHT22;34261;55.678;12.464;2022-11-18T07:52:05;6.30;99.90
48454;DHT22;34261;55.678;12.464;2022-11-18T08:07:31;6.50;99.90
48454;DHT22;34261;55.678;12.464;2022-11-18T08:10:21;6.50;99.90
48454;DHT22;34261;55.678;12.464;2022-11-18T08:13:02;6.50;99.90
48454;DHT22;34261;55.678;12.464;2022-11-18T08:15:52;6.40;99.90
48454;DHT22;34261;55.678;12.464;2022-11-18T08:18:53;6.40;99.90
48454;DHT22;34261;55.678;12.464;2022-11-18T08:21:48;6.50;99.90
48454;DHT22;34261;55.678;12.464;2022-11-18T08:24:21;6.50;99.90
48454;DHT22;34261;55.678;12.464;2022-11-18T08:27:10;6.50;99.90
48454;DHT22;34261;55.678;12.464;2022-11-18T08:29:46;6.60;99.90
48454;DHT22;34261;55.678;12.464;2022-11-18T08:32:32;6.60;99.90
48454;DHT22;34261;55.678;12.464;2022-11-18T08:35:15;6.60;99.90
48454;DHT22;34261;55.678;12.464;2022-11-18T08:38:07;6.60;99.90
48454;DHT22;34261;55.678;12.464;2022-11-18T08:40:39;6.60;99.90
48454;DHT22;34261;55.678;12.464;2022-11-18T08:50:53;6.40;99.90
48454;DHT22;34261;55.678;12.464;2022-11-18T08:53:20;6.50;99.90
48454;DHT22;34261;55.678;12.464;2022-11-18T08:55:46;6.50;99.90
48454;DHT22;34261;55.678;12.464;2022-11-18T08:58:15;6.50;99.90
48454;DHT22;34261;55.678;12.464;2022-11-18T09:00:41;6.60;99.90
48454;DHT22;34261;55.678;12.464;2022-11-18T09:03:06;6.60;99.90
48454;DHT22;34261;55.678;12.464;2022-11-18T09:05:33;6.60;99.90
48454;DHT22;34261;55.678;12.464;2022-11-18T09:07:59;6.70;99.90
48454;DHT22;34261;55.678;12.464;2022-11-18T09:10:25;6.70;99.90
48454;DHT22;34261;55.678;12.464;2022-11-18T09:12:55;6.70;99.90
48454;DHT22;34261;55.678;12.464;2022-11-18T09:15:21;6.80;99.90
48454;DHT22;34261;55.678;12.464;2022-11-18T09:17:49;6.80;99.90
48454;DHT22;34261;55.678;12.464;2022-11-18T09:20:16;6.80;99.90
48454;DHT22;34261;55.678;12.464;2022-11-18T09:22:41;6.80;99.90
48454;DHT22;34261;55.678;12.464;2022-11-18T09:25:07;6.90;99.90
48454;DHT22;34261;55.678;12.464;2022-11-18T09:27:33;6.90;99.90
48454;DHT22;34261;55.678;12.464;2022-11-18T09:30:00;6.90;99.90
48454;DHT22;34261;55.678;12.464;2022-11-18T09:32:28;6.90;99.90
48454;DHT22;34261;55.678;12.464;2022-11-18T09:34:55;7.00;99.90
48454;DHT22;34261;55.678;12.464;2022-11-18T09:37:31;7.00;99.90
48454;DHT22;34261;55.678;12.464;2022-11-18T09:40:04;7.10;99.90
48454;DHT22;34261;55.678;12.464;2022-11-18T09:45:27;7.40;99.90
48454;DHT22;34261;55.678;12.464;2022-11-18T09:47:59;7.50;99.90
48454;DHT22;34261;55.678;12.464;2022-11-18T09:50:44;7.40;99.90
48454;DHT22;34261;55.678;12.464;2022-11-18T09:55:40;7.40;99.90
48454;DHT22;34261;55.678;12.464;2022-11-18T09:58:06;7.50;99.90
48454;DHT22;34261;55.678;12.464;2022-11-18T10:00:43;7.50;99.90
48454;DHT22;34261;55.678;12.464;2022-11-18T10:03:15;7.50;99.90
48454;DHT22;34261;55.678;12.464;2022-11-18T10:05:54;7.50;99.90
48454;DHT22;34261;55.678;12.464;2022-11-18T10:08:27;7.60;99.90
48454;DHT22;34261;55.678;12.464;2022-11-18T10:19:40;8.00;99.90
48454;DHT22;34261;55.678;12.464;2022-11-18T10:22:27;8.00;99.90
48454;DHT22;34261;55.678;12.464;2022-11-18T10:25:18;7.90;99.90
48454;DHT22;34261;55.678;12.464;2022-11-18T10:27:48;7.90;99.80
48454;DHT22;34261;55.678;12.464;2022-11-18T10:30:21;7.90;99.30
48454;DHT22;34261;55.678;12.464;2022-11-18T10:32:53;8.00;98.90
48454;DHT22;34261;55.678;12.464;2022-11-18T10:43:43;8.40;99.10
48454;DHT22;34261;55.678;12.464;2022-11-18T10:46:17;8.40;99.30
48454;DHT22;34261;55.678;12.464;2022-11-18T10:48:49;8.40;99.20
48454;DHT22;34261;55.678;12.464;2022-11-18T10:51:37;8.40;99.40
48454;DHT22;34261;55.678;12.464;2022-11-18T10:54:19;8.50;99.80
48454;DHT22;34261;55.678;12.464;2022-11-18T10:56:59;8.60;99.90
48454;DHT22;34261;55.678;12.464;2022-11-18T10:59:38;8.70;99.60
48454;DHT22;34261;55.678;12.464;2022-11-18T13:04:07;8.40;95.20
48454;DHT22;34261;55.678;12.464;2022-11-18T13:06:41;8.30;95.60
48454;DHT22;34261;55.678;12.464;2022-11-18T13:09:25;8.20;95.80
48454;DHT22;34261;55.678;12.464;2022-11-18T13:11:58;8.30;95.70
48454;DHT22;34261;55.678;12.464;2022-11-18T13:17:37;8.30;95.20
48454;DHT22;34261;55.678;12.464;2022-11-18T13:20:30;8.30;95.50
48454;DHT22;34261;55.678;12.464;2022-11-18T13:25:53;8.10;94.50
48454;DHT22;34261;55.678;12.464;2022-11-18T13:28:53;8.00;93.90
48454;DHT22;34261;55.678;12.464;2022-11-18T13:34:14;8.50;95.00
48454;DHT22;34261;55.678;12.464;2022-11-18T14:57:14;6.30;97.60
48454;DHT22;34261;55.678;12.464;2022-11-18T14:59:44;6.20;97.60
48454;DHT22;34261;55.678;12.464;2022-11-18T15:02:16;6.20;97.80
48454;DHT22;34261;55.678;12.464;2022-11-18T15:04:47;6.20;97.50
48454;DHT22;34261;55.678;12.464;2022-11-18T15:07:14;6.10;97.10
48454;DHT22;34261;55.678;12.464;2022-11-18T15:09:43;6.20;97.30
48454;DHT22;34261;55.678;12.464;2022-11-18T15:12:09;6.10;97.30
48454;DHT22;34261;55.678;12.464;2022-11-18T15:14:35;6.10;97.40
48454;DHT22;34261;55.678;12.464;2022-11-18T15:17:02;6.00;97.10
48454;DHT22;34261;55.678;12.464;2022-11-18T15:19:30;6.00;97.20
48454;DHT22;34261;55.678;12.464;2022-11-18T15:22:01;5.90;97.20
48454;DHT22;34261;55.678;12.464;2022-11-18T15:24:28;5.90;97.40
48454;DHT22;34261;55.678;12.464;2022-11-18T15:26:54;5.80;97.40
48454;DHT22;34261;55.678;12.464;2022-11-18T15:29:22;5.80;97.70
48454;DHT22;34261;55.678;12.464;2022-11-18T15:31:49;5.80;97.70
48454;DHT22;34261;55.678;12.464;2022-11-18T15:34:16;5.70;97.70
48454;DHT22;34261;55.678;12.464;2022-11-18T15:36:42;5.70;97.60
48454;DHT22;34261;55.678;12.464;2022-11-18T15:39:09;5.70;97.60
48454;DHT22;34261;55.678;12.464;2022-11-18T15:41:37;5.70;97.60
48454;DHT22;34261;55.678;12.464;2022-11-18T15:44:03;5.70;97.40
48454;DHT22;34261;55.678;12.464;2022-11-18T15:46:30;5.70;97.10
48454;DHT22;34261;55.678;12.464;2022-11-18T15:49:01;5.60;96.70
48454;DHT22;34261;55.678;12.464;2022-11-18T15:51:28;5.50;96.90
48454;DHT22;34261;55.678;12.464;2022-11-18T15:53:55;5.50;96.80
48454;DHT22;34261;55.678;12.464;2022-11-18T15:59:26;5.50;96.90
48454;DHT22;34261;55.678;12.464;2022-11-18T16:01:53;5.50;96.90
48454;DHT22;34261;55.678;12.464;2022-11-18T16:04:21;5.50;96.70
48454;DHT22;34261;55.678;12.464;2022-11-18T16:06:47;5.50;96.90
48454;DHT22;34261;55.678;12.464;2022-11-18T16:09:14;5.50;96.50
48454;DHT22;34261;55.678;12.464;2022-11-18T16:11:40;5.50;96.50
48454;DHT22;34261;55.678;12.464;2022-11-18T16:14:24;5.50;96.70
48454;DHT22;34261;55.678;12.464;2022-11-18T16:16:52;5.50;96.50
48454;DHT22;34261;55.678;12.464;2022-11-18T16:19:23;5.60;96.20
48454;DHT22;34261;55.678;12.464;2022-11-18T16:21:51;5.50;96.30
48454;DHT22;34261;55.678;12.464;2022-11-18T16:24:20;5.50;96.50
48454;DHT22;34261;55.678;12.464;2022-11-18T16:26:46;5.50;96.70
48454;DHT22;34261;55.678;12.464;2022-11-18T16:29:13;5.50;96.50
48454;DHT22;34261;55.678;12.464;2022-11-18T16:31:41;5.50;96.50
48454;DHT22;34261;55.678;12.464;2022-11-18T16:34:27;5.50;96.80
48454;DHT22;34261;55.678;12.464;2022-11-18T16:36:53;5.40;96.90
48454;DHT22;34261;55.678;12.464;2022-11-18T16:39:20;5.30;96.90
48454;DHT22;34261;55.678;12.464;2022-11-18T16:41:56;5.30;96.80
48454;DHT22;34261;55.678;12.464;2022-11-18T16:44:22;5.30;97.20
48454;DHT22;34261;55.678;12.464;2022-11-18T16:46:50;5.30;97.10
48454;DHT22;34261;55.678;12.464;2022-11-18T16:49:25;5.30;97.30
48454;DHT22;34261;55.678;12.464;2022-11-18T16:52:09;5.20;97.40
48454;DHT22;34261;55.678;12.464;2022-11-18T16:54:34;5.20;97.30
48454;DHT22;34261;55.678;12.464;2022-11-18T16:57:02;5.30;97.40
48454;DHT22;34261;55.678;12.464;2022-11-18T16:59:28;5.20;97.40
48454;DHT22;34261;55.678;12.464;2022-11-18T17:01:55;5.20;97.50
48454;DHT22;34261;55.678;12.464;2022-11-18T17:04:24;5.10;97.60
48454;DHT22;34261;55.678;12.464;2022-11-18T17:06:52;5.10;97.90
48454;DHT22;34261;55.678;12.464;2022-11-18T17:09:19;5.00;97.70
48454;DHT22;34261;55.678;12.464;2022-11-18T17:11:45;5.00;98.00
48454;DHT22;34261;55.678;12.464;2022-11-18T17:14:13;5.10;98.10
48454;DHT22;34261;55.678;12.464;2022-11-18T17:16:44;5.00;98.00
48454;DHT22;34261;55.678;12.464;2022-11-18T17:19:25;5.00;98.00
48454;DHT22;34261;55.678;12.464;2022-11-18T17:21:53;5.00;98.10
48454;DHT22;34261;55.678;12.464;2022-11-18T17:24:19;5.00;97.80
48454;DHT22;34261;55.678;12.464;2022-11-18T17:26:47;5.00;97.90
48454;DHT22;34261;55.678;12.464;2022-11-18T17:29:19;4.90;98.00
48454;DHT22;34261;55.678;12.464;2022-11-18T17:31:45;4.90;98.00
48454;DHT22;34261;55.678;12.464;2022-11-18T17:34:15;4.90;98.10
48454;DHT22;34261;55.678;12.464;2022-11-18T17:36:44;4.90;98.20
48454;DHT22;34261;55.678;12.464;2022-11-18T17:39:14;4.90;98.20
48454;DHT22;34261;55.678;12.464;2022-11-18T17:41:44;4.80;98.20
48454;DHT22;34261;55.678;12.464;2022-11-18T17:44:33;4.80;98.30
48454;DHT22;34261;55.678;12.464;2022-11-18T17:47:03;4.80;98.60
48454;DHT22;34261;55.678;12.464;2022-11-18T17:49:29;4.80;98.50
48454;DHT22;34261;55.678;12.464;2022-11-18T17:51:54;4.70;98.40
48454;DHT22;34261;55.678;12.464;2022-11-18T17:54:26;4.70;98.40
48454;DHT22;34261;55.678;12.464;2022-11-18T17:56:54;4.70;98.40
48454;DHT22;34261;55.678;12.464;2022-11-18T17:59:25;4.70;98.30
48454;DHT22;34261;55.678;12.464;2022-11-18T18:01:54;4.70;98.40
48454;DHT22;34261;55.678;12.464;2022-11-18T18:04:20;4.60;98.20
48454;DHT22;34261;55.678;12.464;2022-11-18T18:06:47;4.60;98.10
48454;DHT22;34261;55.678;12.464;2022-11-18T18:09:18;4.60;98.20
48454;DHT22;34261;55.678;12.464;2022-11-18T18:11:47;4.60;98.20
48454;DHT22;34261;55.678;12.464;2022-11-18T18:14:13;4.60;98.10
48454;DHT22;34261;55.678;12.464;2022-11-18T18:16:46;4.60;98.20
48454;DHT22;34261;55.678;12.464;2022-11-18T18:19:13;4.50;98.20
48454;DHT22;34261;55.678;12.464;2022-11-18T18:21:40;4.50;97.90
48454;DHT22;34261;55.678;12.464;2022-11-18T18:24:08;4.50;97.90
48454;DHT22;34261;55.678;12.464;2022-11-18T18:26:58;4.50;97.80
48454;DHT22;34261;55.678;12.464;2022-11-18T18:29:32;4.50;97.80
48454;DHT22;34261;55.678;12.464;2022-11-18T18:32:01;4.50;97.90
48454;DHT22;34261;55.678;12.464;2022-11-18T18:34:27;4.50;98.00
48454;DHT22;34261;55.678;12.464;2022-11-18T18:36:58;4.50;98.00
48454;DHT22;34261;55.678;12.464;2022-11-18T18:39:27;4.50;98.10
48454;DHT22;34261;55.678;12.464;2022-11-18T18:41:53;4.40;97.90
48454;DHT22;34261;55.678;12.464;2022-11-18T18:44:24;4.50;98.10
48454;DHT22;34261;55.678;12.464;2022-11-18T18:47:13;4.50;98.00
48454;DHT22;34261;55.678;12.464;2022-11-18T18:49:42;4.40;98.20
48454;DHT22;34261;55.678;12.464;2022-11-18T18:52:08;4.40;98.30
48454;DHT22;34261;55.678;12.464;2022-11-18T18:54:34;4.50;98.40
48454;DHT22;34261;55.678;12.464;2022-11-18T18:57:10;4.50;98.40
48454;DHT22;34261;55.678;12.464;2022-11-18T18:59:36;4.50;98.40
48454;DHT22;34261;55.678;12.464;2022-11-18T19:02:03;4.50;98.40
48454;DHT22;34261;55.678;12.464;2022-11-18T19:04:34;4.50;98.40
48454;DHT22;34261;55.678;12.464;2022-11-18T19:07:07;4.50;98.40
48454;DHT22;34261;55.678;12.464;2022-11-18T19:09:35;4.50;98.30
48454;DHT22;34261;55.678;12.464;2022-11-18T19:12:03;4.40;98.40
48454;DHT22;34261;55.678;12.464;2022-11-18T19:15:07;4.40;98.40
48454;DHT22;34261;55.678;12.464;2022-11-18T19:17:43;4.40;98.40
48454;DHT22;34261;55.678;12.464;2022-11-18T19:20:09;4.50;98.60
48454;DHT22;34261;55.678;12.464;2022-11-18T19:22:54;4.40;98.40
48454;DHT22;34261;55.678;12.464;2022-11-18T19:25:35;4.50;98.50
48454;DHT22;34261;55.678;12.464;2022-11-18T19:28:20;4.50;98.50
48454;DHT22;34261;55.678;12.464;2022-11-18T19:33:52;4.50;98.70
48454;DHT22;34261;55.678;12.464;2022-11-18T19:36:18;4.50;98.70
48454;DHT22;34261;55.678;12.464;2022-11-18T19:38:55;4.60;99.10
48454;DHT22;34261;55.678;12.464;2022-11-18T19:41:30;4.60;98.90
48454;DHT22;34261;55.678;12.464;2022-11-18T19:44:15;4.60;99.10
48454;DHT22;34261;55.678;12.464;2022-11-18T19:46:46;4.70;99.00
48454;DHT22;34261;55.678;12.464;2022-11-18T19:49:28;4.70;98.90
48454;DHT22;34261;55.678;12.464;2022-11-18T19:52:16;4.70;99.00
48454;DHT22;34261;55.678;12.464;2022-11-18T19:54:45;4.60;99.20
48454;DHT22;34261;55.678;12.464;2022-11-18T19:57:18;4.60;99.20
48454;DHT22;34261;55.678;12.464;2022-11-18T20:00:06;4.60;99.30
48454;DHT22;34261;55.678;12.464;2022-11-18T20:02:57;4.50;99.50
48454;DHT22;34261;55.678;12.464;2022-11-18T20:05:50;4.40;99.70
48454;DHT22;34261;55.678;12.464;2022-11-18T20:08:16;4.40;99.90
48454;DHT22;34261;55.678;12.464;2022-11-18T20:13:55;4.40;99.90
48454;DHT22;34261;55.678;12.464;2022-11-18T20:16:30;4.40;99.90
48454;DHT22;34261;55.678;12.464;2022-11-18T20:18:58;4.40;99.90
